Terminal Aerodrome Forecast
Issued by NWS Flagstaff, AZ

Home | Current Version | Previous Version | Text Only | Print | Product List | Glossary On
Versions: 1 2 3 4 5 6 7 8 9 10 11 12 13
000
FTUS45 KFGZ 240006 AAA
TAFINW
TAF AMD
KINW 240006Z 2400/2424 32011KT P6SM FEW250
     FM240300 26010KT P6SM FEW250
     FM241800 25010G18KT P6SM FEW150 FEW250
     FM242100 25016G26KT P6SM FEW150 FEW250=

USA.gov is the U.S. government's official web portal to all federal, state and local government web resources and services.